sensor_id;sensor_type;location;lat;lon;timestamp;P1;durP1;ratioP1;P2;durP2;ratioP2
37221;SDS011;23119;51.842;-2.230;2023-07-30T00:00:42;9.95;;;0.65;;
37221;SDS011;23119;51.842;-2.230;2023-07-30T00:03:08;6.10;;;0.50;;
37221;SDS011;23119;51.842;-2.230;2023-07-30T00:05:36;6.68;;;1.40;;
37221;SDS011;23119;51.842;-2.230;2023-07-30T00:08:02;7.38;;;0.70;;
37221;SDS011;23119;51.842;-2.230;2023-07-30T00:10:38;9.23;;;0.60;;
37221;SDS011;23119;51.842;-2.230;2023-07-30T00:13:04;6.90;;;1.02;;
37221;SDS011;23119;51.842;-2.230;2023-07-30T00:15:30;5.03;;;0.65;;
37221;SDS011;23119;51.842;-2.230;2023-07-30T00:17:55;5.32;;;0.50;;
37221;SDS011;23119;51.842;-2.230;2023-07-30T00:20:27;8.13;;;0.65;;
37221;SDS011;23119;51.842;-2.230;2023-07-30T00:22:52;13.27;;;1.17;;
37221;SDS011;23119;51.842;-2.230;2023-07-30T00:25:18;7.75;;;0.70;;
37221;SDS011;23119;51.842;-2.230;2023-07-30T00:27:44;8.30;;;0.70;;
37221;SDS011;23119;51.842;-2.230;2023-07-30T00:30:11;10.00;;;0.60;;
37221;SDS011;23119;51.842;-2.230;2023-07-30T00:32:40;9.05;;;0.75;;
37221;SDS011;23119;51.842;-2.230;2023-07-30T00:35:08;11.32;;;0.70;;
37221;SDS011;23119;51.842;-2.230;2023-07-30T00:37:38;6.70;;;0.90;;
37221;SDS011;23119;51.842;-2.230;2023-07-30T00:40:03;7.28;;;0.60;;
37221;SDS011;23119;51.842;-2.230;2023-07-30T00:42:32;7.68;;;1.00;;
37221;SDS011;23119;51.842;-2.230;2023-07-30T00:44:57;11.98;;;0.70;;
37221;SDS011;23119;51.842;-2.230;2023-07-30T00:47:26;6.90;;;0.60;;
37221;SDS011;23119;51.842;-2.230;2023-07-30T00:49:52;7.13;;;0.77;;
37221;SDS011;23119;51.842;-2.230;2023-07-30T00:52:19;6.63;;;1.02;;
37221;SDS011;23119;51.842;-2.230;2023-07-30T00:54:46;9.45;;;0.85;;
37221;SDS011;23119;51.842;-2.230;2023-07-30T00:57:13;5.95;;;0.63;;
37221;SDS011;23119;51.842;-2.230;2023-07-30T00:59:41;6.85;;;0.70;;
37221;SDS011;23119;51.842;-2.230;2023-07-30T01:02:06;6.70;;;0.68;;
37221;SDS011;23119;51.842;-2.230;2023-07-30T01:04:33;6.07;;;0.63;;
37221;SDS011;23119;51.842;-2.230;2023-07-30T01:07:02;8.60;;;0.65;;
37221;SDS011;23119;51.842;-2.230;2023-07-30T01:09:28;8.10;;;0.70;;
37221;SDS011;23119;51.842;-2.230;2023-07-30T01:11:54;8.95;;;0.80;;
37221;SDS011;23119;51.842;-2.230;2023-07-30T01:14:20;6.07;;;0.45;;
37221;SDS011;23119;51.842;-2.230;2023-07-30T01:16:55;7.40;;;0.55;;
37221;SDS011;23119;51.842;-2.230;2023-07-30T01:19:21;10.02;;;0.70;;
37221;SDS011;23119;51.842;-2.230;2023-07-30T01:21:47;10.02;;;0.80;;
37221;SDS011;23119;51.842;-2.230;2023-07-30T01:24:13;9.73;;;0.77;;
37221;SDS011;23119;51.842;-2.230;2023-07-30T01:26:42;8.55;;;0.55;;
37221;SDS011;23119;51.842;-2.230;2023-07-30T01:29:14;13.15;;;2.22;;
37221;SDS011;23119;51.842;-2.230;2023-07-30T01:31:55;13.63;;;1.10;;
37221;SDS011;23119;51.842;-2.230;2023-07-30T01:34:35;9.88;;;0.75;;
37221;SDS011;23119;51.842;-2.230;2023-07-30T01:37:03;11.00;;;1.30;;
37221;SDS011;23119;51.842;-2.230;2023-07-30T01:39:31;8.27;;;0.77;;
37221;SDS011;23119;51.842;-2.230;2023-07-30T01:42:03;8.45;;;1.33;;
37221;SDS011;23119;51.842;-2.230;2023-07-30T01:44:29;9.65;;;1.25;;
37221;SDS011;23119;51.842;-2.230;2023-07-30T01:46:55;11.70;;;1.00;;
37221;SDS011;23119;51.842;-2.230;2023-07-30T01:49:23;7.38;;;1.00;;
37221;SDS011;23119;51.842;-2.230;2023-07-30T01:51:53;10.70;;;1.00;;
37221;SDS011;23119;51.842;-2.230;2023-07-30T01:54:19;7.50;;;0.80;;
37221;SDS011;23119;51.842;-2.230;2023-07-30T01:56:45;12.00;;;0.80;;
37221;SDS011;23119;51.842;-2.230;2023-07-30T01:59:10;10.85;;;0.80;;
37221;SDS011;23119;51.842;-2.230;2023-07-30T02:01:37;10.50;;;1.00;;
37221;SDS011;23119;51.842;-2.230;2023-07-30T02:04:05;14.10;;;1.30;;
37221;SDS011;23119;51.842;-2.230;2023-07-30T02:06:31;10.23;;;0.95;;
37221;SDS011;23119;51.842;-2.230;2023-07-30T02:09:00;14.88;;;1.25;;
37221;SDS011;23119;51.842;-2.230;2023-07-30T02:11:29;8.30;;;0.82;;
37221;SDS011;23119;51.842;-2.230;2023-07-30T02:13:58;14.00;;;1.02;;
37221;SDS011;23119;51.842;-2.230;2023-07-30T02:16:23;10.98;;;1.45;;
37221;SDS011;23119;51.842;-2.230;2023-07-30T02:18:49;12.48;;;1.00;;
37221;SDS011;23119;51.842;-2.230;2023-07-30T02:21:17;12.13;;;1.23;;
37221;SDS011;23119;51.842;-2.230;2023-07-30T02:23:43;15.35;;;1.20;;
37221;SDS011;23119;51.842;-2.230;2023-07-30T02:26:09;11.73;;;1.23;;
37221;SDS011;23119;51.842;-2.230;2023-07-30T02:28:36;8.45;;;1.10;;
37221;SDS011;23119;51.842;-2.230;2023-07-30T02:31:05;8.27;;;1.13;;
37221;SDS011;23119;51.842;-2.230;2023-07-30T02:33:33;9.63;;;1.15;;
37221;SDS011;23119;51.842;-2.230;2023-07-30T02:36:02;11.00;;;1.45;;
37221;SDS011;23119;51.842;-2.230;2023-07-30T02:38:31;14.07;;;1.42;;
37221;SDS011;23119;51.842;-2.230;2023-07-30T02:40:57;10.73;;;0.70;;
37221;SDS011;23119;51.842;-2.230;2023-07-30T02:43:22;11.93;;;1.48;;
37221;SDS011;23119;51.842;-2.230;2023-07-30T02:45:48;14.55;;;1.20;;
37221;SDS011;23119;51.842;-2.230;2023-07-30T02:48:17;17.45;;;1.25;;
37221;SDS011;23119;51.842;-2.230;2023-07-30T02:50:43;15.50;;;1.17;;
37221;SDS011;23119;51.842;-2.230;2023-07-30T02:53:11;12.02;;;1.45;;
37221;SDS011;23119;51.842;-2.230;2023-07-30T02:55:36;12.60;;;1.38;;
37221;SDS011;23119;51.842;-2.230;2023-07-30T02:58:02;19.63;;;0.90;;
37221;SDS011;23119;51.842;-2.230;2023-07-30T03:00:45;14.15;;;1.00;;
37221;SDS011;23119;51.842;-2.230;2023-07-30T03:03:11;13.00;;;1.20;;
37221;SDS011;23119;51.842;-2.230;2023-07-30T03:05:36;13.18;;;1.20;;
37221;SDS011;23119;51.842;-2.230;2023-07-30T03:08:04;20.50;;;1.35;;
37221;SDS011;23119;51.842;-2.230;2023-07-30T03:10:30;11.30;;;1.42;;
37221;SDS011;23119;51.842;-2.230;2023-07-30T03:12:58;8.18;;;1.05;;
37221;SDS011;23119;51.842;-2.230;2023-07-30T03:15:24;12.40;;;1.10;;
37221;SDS011;23119;51.842;-2.230;2023-07-30T03:17:49;12.00;;;0.90;;
37221;SDS011;23119;51.842;-2.230;2023-07-30T03:20:15;11.05;;;1.17;;
37221;SDS011;23119;51.842;-2.230;2023-07-30T03:22:41;14.10;;;1.38;;
37221;SDS011;23119;51.842;-2.230;2023-07-30T03:25:07;9.65;;;1.02;;
37221;SDS011;23119;51.842;-2.230;2023-07-30T03:27:33;17.98;;;1.27;;
37221;SDS011;23119;51.842;-2.230;2023-07-30T03:29:58;10.85;;;0.73;;
37221;SDS011;23119;51.842;-2.230;2023-07-30T03:32:27;7.25;;;1.00;;
37221;SDS011;23119;51.842;-2.230;2023-07-30T03:34:52;8.93;;;0.80;;
37221;SDS011;23119;51.842;-2.230;2023-07-30T03:37:18;9.32;;;0.85;;
37221;SDS011;23119;51.842;-2.230;2023-07-30T03:39:44;9.38;;;1.05;;
37221;SDS011;23119;51.842;-2.230;2023-07-30T03:42:10;14.35;;;1.42;;
37221;SDS011;23119;51.842;-2.230;2023-07-30T03:44:40;14.30;;;1.38;;
37221;SDS011;23119;51.842;-2.230;2023-07-30T03:47:06;10.95;;;0.93;;
37221;SDS011;23119;51.842;-2.230;2023-07-30T03:49:34;14.73;;;1.45;;
37221;SDS011;23119;51.842;-2.230;2023-07-30T03:52:02;11.50;;;1.02;;
37221;SDS011;23119;51.842;-2.230;2023-07-30T03:54:30;6.25;;;0.80;;
37221;SDS011;23119;51.842;-2.230;2023-07-30T03:56:56;11.07;;;1.08;;
37221;SDS011;23119;51.842;-2.230;2023-07-30T03:59:25;18.17;;;1.25;;
37221;SDS011;23119;51.842;-2.230;2023-07-30T04:01:51;14.48;;;1.20;;
37221;SDS011;23119;51.842;-2.230;2023-07-30T04:04:17;8.23;;;0.88;;
37221;SDS011;23119;51.842;-2.230;2023-07-30T04:06:42;9.57;;;0.98;;
37221;SDS011;23119;51.842;-2.230;2023-07-30T04:09:08;16.35;;;1.10;;
37221;SDS011;23119;51.842;-2.230;2023-07-30T04:11:36;7.97;;;1.95;;
37221;SDS011;23119;51.842;-2.230;2023-07-30T04:14:05;9.10;;;0.77;;
37221;SDS011;23119;51.842;-2.230;2023-07-30T04:16:33;8.93;;;1.15;;
37221;SDS011;23119;51.842;-2.230;2023-07-30T04:19:00;11.32;;;0.90;;
37221;SDS011;23119;51.842;-2.230;2023-07-30T04:21:29;8.63;;;0.80;;
37221;SDS011;23119;51.842;-2.230;2023-07-30T04:23:58;8.68;;;0.90;;
37221;SDS011;23119;51.842;-2.230;2023-07-30T04:26:26;7.47;;;1.02;;
37221;SDS011;23119;51.842;-2.230;2023-07-30T04:28:54;7.00;;;0.70;;
37221;SDS011;23119;51.842;-2.230;2023-07-30T04:31:20;11.57;;;0.90;;
37221;SDS011;23119;51.842;-2.230;2023-07-30T04:33:45;8.45;;;0.70;;
37221;SDS011;23119;51.842;-2.230;2023-07-30T04:36:11;9.98;;;0.80;;
37221;SDS011;23119;51.842;-2.230;2023-07-30T04:38:37;8.15;;;0.98;;
37221;SDS011;23119;51.842;-2.230;2023-07-30T04:41:05;4.80;;;0.65;;
37221;SDS011;23119;51.842;-2.230;2023-07-30T04:43:32;8.30;;;1.00;;
37221;SDS011;23119;51.842;-2.230;2023-07-30T04:45:57;8.48;;;0.73;;
37221;SDS011;23119;51.842;-2.230;2023-07-30T04:48:23;7.00;;;0.50;;
37221;SDS011;23119;51.842;-2.230;2023-07-30T04:50:52;8.82;;;0.98;;
37221;SDS011;23119;51.842;-2.230;2023-07-30T04:53:17;7.10;;;0.60;;
37221;SDS011;23119;51.842;-2.230;2023-07-30T04:55:48;7.30;;;0.50;;
37221;SDS011;23119;51.842;-2.230;2023-07-30T04:58:22;5.38;;;1.30;;
37221;SDS011;23119;51.842;-2.230;2023-07-30T05:00:48;6.15;;;0.57;;
37221;SDS011;23119;51.842;-2.230;2023-07-30T05:03:17;12.93;;;2.08;;
37221;SDS011;23119;51.842;-2.230;2023-07-30T05:05:43;10.85;;;1.30;;
37221;SDS011;23119;51.842;-2.230;2023-07-30T05:08:08;6.75;;;1.30;;
37221;SDS011;23119;51.842;-2.230;2023-07-30T05:10:36;6.68;;;0.90;;
37221;SDS011;23119;51.842;-2.230;2023-07-30T05:13:02;6.03;;;0.40;;
37221;SDS011;23119;51.842;-2.230;2023-07-30T05:18:00;7.53;;;0.75;;
37221;SDS011;23119;51.842;-2.230;2023-07-30T05:20:26;6.82;;;0.60;;
37221;SDS011;23119;51.842;-2.230;2023-07-30T05:22:52;5.38;;;0.63;;
37221;SDS011;23119;51.842;-2.230;2023-07-30T05:25:17;8.27;;;0.65;;
37221;SDS011;23119;51.842;-2.230;2023-07-30T05:27:43;11.30;;;2.05;;
37221;SDS011;23119;51.842;-2.230;2023-07-30T05:30:11;7.43;;;0.70;;
37221;SDS011;23119;51.842;-2.230;2023-07-30T05:32:36;6.03;;;0.77;;
37221;SDS011;23119;51.842;-2.230;2023-07-30T05:35:04;7.80;;;0.65;;
37221;SDS011;23119;51.842;-2.230;2023-07-30T05:37:33;5.25;;;0.55;;
37221;SDS011;23119;51.842;-2.230;2023-07-30T05:39:59;9.15;;;1.05;;
37221;SDS011;23119;51.842;-2.230;2023-07-30T05:42:30;7.40;;;0.52;;
37221;SDS011;23119;51.842;-2.230;2023-07-30T05:44:56;4.25;;;0.70;;
37221;SDS011;23119;51.842;-2.230;2023-07-30T05:47:24;8.77;;;0.55;;
37221;SDS011;23119;51.842;-2.230;2023-07-30T05:49:52;7.63;;;0.70;;
37221;SDS011;23119;51.842;-2.230;2023-07-30T05:52:18;7.93;;;1.48;;
37221;SDS011;23119;51.842;-2.230;2023-07-30T05:54:46;7.25;;;0.60;;
37221;SDS011;23119;51.842;-2.230;2023-07-30T05:57:17;8.32;;;1.67;;
37221;SDS011;23119;51.842;-2.230;2023-07-30T05:59:42;6.10;;;0.50;;
37221;SDS011;23119;51.842;-2.230;2023-07-30T06:02:14;9.13;;;0.75;;
37221;SDS011;23119;51.842;-2.230;2023-07-30T06:04:43;14.93;;;1.33;;
37221;SDS011;23119;51.842;-2.230;2023-07-30T06:07:10;7.72;;;0.70;;
37221;SDS011;23119;51.842;-2.230;2023-07-30T06:09:36;11.18;;;1.10;;
37221;SDS011;23119;51.842;-2.230;2023-07-30T06:12:04;4.78;;;0.93;;
37221;SDS011;23119;51.842;-2.230;2023-07-30T06:14:30;7.65;;;0.90;;
37221;SDS011;23119;51.842;-2.230;2023-07-30T06:16:58;6.15;;;0.77;;
37221;SDS011;23119;51.842;-2.230;2023-07-30T06:19:34;5.95;;;0.73;;
37221;SDS011;23119;51.842;-2.230;2023-07-30T06:22:03;11.60;;;1.00;;
37221;SDS011;23119;51.842;-2.230;2023-07-30T06:24:32;13.32;;;1.05;;
37221;SDS011;23119;51.842;-2.230;2023-07-30T06:27:00;9.82;;;0.70;;
37221;SDS011;23119;51.842;-2.230;2023-07-30T06:29:26;6.40;;;0.68;;
37221;SDS011;23119;51.842;-2.230;2023-07-30T06:32:05;7.20;;;0.90;;
37221;SDS011;23119;51.842;-2.230;2023-07-30T06:34:31;4.88;;;0.60;;
37221;SDS011;23119;51.842;-2.230;2023-07-30T06:37:02;6.53;;;0.65;;
37221;SDS011;23119;51.842;-2.230;2023-07-30T06:39:27;7.13;;;0.70;;
37221;SDS011;23119;51.842;-2.230;2023-07-30T06:41:53;7.30;;;0.70;;
37221;SDS011;23119;51.842;-2.230;2023-07-30T06:44:23;4.43;;;0.50;;
37221;SDS011;23119;51.842;-2.230;2023-07-30T06:46:50;3.58;;;0.70;;
37221;SDS011;23119;51.842;-2.230;2023-07-30T06:49:16;4.30;;;0.65;;
37221;SDS011;23119;51.842;-2.230;2023-07-30T06:51:44;6.32;;;0.60;;
37221;SDS011;23119;51.842;-2.230;2023-07-30T06:54:15;7.90;;;0.82;;
37221;SDS011;23119;51.842;-2.230;2023-07-30T06:56:40;4.57;;;1.00;;
37221;SDS011;23119;51.842;-2.230;2023-07-30T06:59:06;6.60;;;0.68;;
37221;SDS011;23119;51.842;-2.230;2023-07-30T07:01:37;5.70;;;0.70;;
37221;SDS011;23119;51.842;-2.230;2023-07-30T07:04:03;5.68;;;0.65;;
37221;SDS011;23119;51.842;-2.230;2023-07-30T07:06:30;5.47;;;0.60;;
37221;SDS011;23119;51.842;-2.230;2023-07-30T07:08:59;7.70;;;0.73;;
37221;SDS011;23119;51.842;-2.230;2023-07-30T07:11:28;3.85;;;0.60;;
37221;SDS011;23119;51.842;-2.230;2023-07-30T07:13:54;4.10;;;1.00;;
37221;SDS011;23119;51.842;-2.230;2023-07-30T07:16:29;4.13;;;0.65;;
37221;SDS011;23119;51.842;-2.230;2023-07-30T07:18:54;6.28;;;0.60;;
37221;SDS011;23119;51.842;-2.230;2023-07-30T07:21:22;4.32;;;0.60;;
37221;SDS011;23119;51.842;-2.230;2023-07-30T07:23:48;2.75;;;0.60;;
37221;SDS011;23119;51.842;-2.230;2023-07-30T07:26:19;4.63;;;0.65;;
37221;SDS011;23119;51.842;-2.230;2023-07-30T07:28:47;3.35;;;0.60;;
37221;SDS011;23119;51.842;-2.230;2023-07-30T07:31:16;3.13;;;0.50;;
37221;SDS011;23119;51.842;-2.230;2023-07-30T07:33:45;3.83;;;0.50;;
37221;SDS011;23119;51.842;-2.230;2023-07-30T07:36:10;4.13;;;0.60;;
37221;SDS011;23119;51.842;-2.230;2023-07-30T07:38:39;4.35;;;0.85;;
37221;SDS011;23119;51.842;-2.230;2023-07-30T07:41:05;5.57;;;1.00;;
37221;SDS011;23119;51.842;-2.230;2023-07-30T07:43:31;3.40;;;0.55;;
37221;SDS011;23119;51.842;-2.230;2023-07-30T07:45:56;5.30;;;0.77;;
37221;SDS011;23119;51.842;-2.230;2023-07-30T07:48:27;5.10;;;0.82;;
37221;SDS011;23119;51.842;-2.230;2023-07-30T07:50:53;4.15;;;0.63;;
37221;SDS011;23119;51.842;-2.230;2023-07-30T07:53:19;5.90;;;0.65;;
37221;SDS011;23119;51.842;-2.230;2023-07-30T07:55:47;3.45;;;0.55;;
37221;SDS011;23119;51.842;-2.230;2023-07-30T07:58:15;4.65;;;0.70;;
37221;SDS011;23119;51.842;-2.230;2023-07-30T08:00:43;5.30;;;0.70;;
37221;SDS011;23119;51.842;-2.230;2023-07-30T08:03:09;3.63;;;0.55;;
37221;SDS011;23119;51.842;-2.230;2023-07-30T08:05:35;3.92;;;0.73;;
37221;SDS011;23119;51.842;-2.230;2023-07-30T08:08:03;5.60;;;0.70;;
37221;SDS011;23119;51.842;-2.230;2023-07-30T08:10:31;6.22;;;0.98;;
37221;SDS011;23119;51.842;-2.230;2023-07-30T08:12:57;9.93;;;1.08;;
37221;SDS011;23119;51.842;-2.230;2023-07-30T08:15:25;5.20;;;0.60;;
37221;SDS011;23119;51.842;-2.230;2023-07-30T08:17:51;2.65;;;0.60;;
37221;SDS011;23119;51.842;-2.230;2023-07-30T08:20:31;5.95;;;0.77;;
37221;SDS011;23119;51.842;-2.230;2023-07-30T08:22:59;5.97;;;0.55;;
37221;SDS011;23119;51.842;-2.230;2023-07-30T08:27:53;3.90;;;0.77;;
37221;SDS011;23119;51.842;-2.230;2023-07-30T08:30:21;5.78;;;0.80;;
37221;SDS011;23119;51.842;-2.230;2023-07-30T08:32:52;3.13;;;0.70;;
37221;SDS011;23119;51.842;-2.230;2023-07-30T08:35:20;6.50;;;0.90;;
37221;SDS011;23119;51.842;-2.230;2023-07-30T08:37:48;5.57;;;0.80;;
37221;SDS011;23119;51.842;-2.230;2023-07-30T08:40:14;3.45;;;0.75;;
37221;SDS011;23119;51.842;-2.230;2023-07-30T08:42:42;6.30;;;0.80;;
37221;SDS011;23119;51.842;-2.230;2023-07-30T08:45:08;3.55;;;0.80;;
37221;SDS011;23119;51.842;-2.230;2023-07-30T08:47:34;4.30;;;0.80;;
37221;SDS011;23119;51.842;-2.230;2023-07-30T08:50:04;4.45;;;1.25;;
37221;SDS011;23119;51.842;-2.230;2023-07-30T08:52:31;6.60;;;0.98;;
37221;SDS011;23119;51.842;-2.230;2023-07-30T08:55:07;7.75;;;0.70;;
37221;SDS011;23119;51.842;-2.230;2023-07-30T08:57:36;3.80;;;0.75;;
37221;SDS011;23119;51.842;-2.230;2023-07-30T09:00:06;6.43;;;0.60;;
37221;SDS011;23119;51.842;-2.230;2023-07-30T09:02:49;6.85;;;0.85;;
37221;SDS011;23119;51.842;-2.230;2023-07-30T09:05:19;5.13;;;0.70;;
37221;SDS011;23119;51.842;-2.230;2023-07-30T09:07:48;4.20;;;0.65;;
37221;SDS011;23119;51.842;-2.230;2023-07-30T09:10:17;7.47;;;0.80;;
37221;SDS011;23119;51.842;-2.230;2023-07-30T09:12:45;8.57;;;1.17;;
37221;SDS011;23119;51.842;-2.230;2023-07-30T09:15:41;4.80;;;1.25;;
37221;SDS011;23119;51.842;-2.230;2023-07-30T09:18:16;5.32;;;0.90;;
37221;SDS011;23119;51.842;-2.230;2023-07-30T09:20:43;9.80;;;1.13;;
37221;SDS011;23119;51.842;-2.230;2023-07-30T09:23:09;9.57;;;1.40;;
37221;SDS011;23119;51.842;-2.230;2023-07-30T09:25:38;6.85;;;1.00;;
37221;SDS011;23119;51.842;-2.230;2023-07-30T09:28:10;9.23;;;1.08;;
37221;SDS011;23119;51.842;-2.230;2023-07-30T09:30:35;9.75;;;1.20;;
37221;SDS011;23119;51.842;-2.230;2023-07-30T09:33:01;7.88;;;1.23;;
37221;SDS011;23119;51.842;-2.230;2023-07-30T09:35:27;7.40;;;1.10;;
37221;SDS011;23119;51.842;-2.230;2023-07-30T09:37:59;6.13;;;0.98;;
37221;SDS011;23119;51.842;-2.230;2023-07-30T09:40:46;10.45;;;1.52;;
37221;SDS011;23119;51.842;-2.230;2023-07-30T09:43:21;8.10;;;1.10;;
37221;SDS011;23119;51.842;-2.230;2023-07-30T09:45:53;8.48;;;1.25;;
37221;SDS011;23119;51.842;-2.230;2023-07-30T09:48:18;3.92;;;0.70;;
37221;SDS011;23119;51.842;-2.230;2023-07-30T09:50:47;8.02;;;1.10;;
37221;SDS011;23119;51.842;-2.230;2023-07-30T09:53:13;7.65;;;1.25;;
37221;SDS011;23119;51.842;-2.230;2023-07-30T09:55:40;7.60;;;1.45;;
37221;SDS011;23119;51.842;-2.230;2023-07-30T09:58:06;5.55;;;1.10;;
37221;SDS011;23119;51.842;-2.230;2023-07-30T10:00:39;5.57;;;1.00;;
37221;SDS011;23119;51.842;-2.230;2023-07-30T10:03:05;7.75;;;0.82;;
37221;SDS011;23119;51.842;-2.230;2023-07-30T10:05:32;11.52;;;1.20;;
37221;SDS011;23119;51.842;-2.230;2023-07-30T10:10:52;5.20;;;0.80;;
37221;SDS011;23119;51.842;-2.230;2023-07-30T10:13:24;5.65;;;0.90;;
37221;SDS011;23119;51.842;-2.230;2023-07-30T10:15:51;6.88;;;0.77;;
37221;SDS011;23119;51.842;-2.230;2023-07-30T10:18:17;7.20;;;1.02;;
37221;SDS011;23119;51.842;-2.230;2023-07-30T10:20:52;7.35;;;0.70;;
37221;SDS011;23119;51.842;-2.230;2023-07-30T10:23:20;5.20;;;0.70;;
37221;SDS011;23119;51.842;-2.230;2023-07-30T10:25:46;4.05;;;0.77;;
37221;SDS011;23119;51.842;-2.230;2023-07-30T10:28:26;4.05;;;0.60;;
37221;SDS011;23119;51.842;-2.230;2023-07-30T10:30:55;1.50;;;0.30;;
37221;SDS011;23119;51.842;-2.230;2023-07-30T10:33:28;2.45;;;0.40;;
37221;SDS011;23119;51.842;-2.230;2023-07-30T10:36:11;2.70;;;0.20;;
37221;SDS011;23119;51.842;-2.230;2023-07-30T10:38:41;1.35;;;0.30;;
37221;SDS011;23119;51.842;-2.230;2023-07-30T10:41:07;1.42;;;0.17;;
37221;SDS011;23119;51.842;-2.230;2023-07-30T10:43:36;1.88;;;0.30;;
37221;SDS011;23119;51.842;-2.230;2023-07-30T10:46:04;1.67;;;0.32;;
37221;SDS011;23119;51.842;-2.230;2023-07-30T10:48:31;1.25;;;0.22;;
37221;SDS011;23119;51.842;-2.230;2023-07-30T10:51:03;1.75;;;0.43;;
37221;SDS011;23119;51.842;-2.230;2023-07-30T10:56:02;0.22;;;0.10;;
37221;SDS011;23119;51.842;-2.230;2023-07-30T10:58:35;1.00;;;0.20;;
37221;SDS011;23119;51.842;-2.230;2023-07-30T11:01:04;0.50;;;0.10;;
37221;SDS011;23119;51.842;-2.230;2023-07-30T11:03:35;1.38;;;0.10;;
37221;SDS011;23119;51.842;-2.230;2023-07-30T11:06:03;0.40;;;0.10;;
37221;SDS011;23119;51.842;-2.230;2023-07-30T11:08:37;1.08;;;0.03;;
37221;SDS011;23119;51.842;-2.230;2023-07-30T11:13:46;0.50;;;0.00;;
37221;SDS011;23119;51.842;-2.230;2023-07-30T11:16:16;0.20;;;0.00;;
37221;SDS011;23119;51.842;-2.230;2023-07-30T11:18:44;0.30;;;0.08;;
37221;SDS011;23119;51.842;-2.230;2023-07-30T11:21:13;0.77;;;0.03;;
37221;SDS011;23119;51.842;-2.230;2023-07-30T11:23:44;0.20;;;0.00;;
37221;SDS011;23119;51.842;-2.230;2023-07-30T11:26:14;1.65;;;0.10;;
37221;SDS011;23119;51.842;-2.230;2023-07-30T11:31:09;0.50;;;0.10;;
37221;SDS011;23119;51.842;-2.230;2023-07-30T11:33:53;0.82;;;0.10;;
37221;SDS011;23119;51.842;-2.230;2023-07-30T11:36:20;0.10;;;0.10;;
37221;SDS011;23119;51.842;-2.230;2023-07-30T11:38:49;0.00;;;0.00;;
37221;SDS011;23119;51.842;-2.230;2023-07-30T11:41:18;0.00;;;0.00;;
37221;SDS011;23119;51.842;-2.230;2023-07-30T11:43:44;0.00;;;0.00;;
37221;SDS011;23119;51.842;-2.230;2023-07-30T11:46:18;0.00;;;0.00;;
37221;SDS011;23119;51.842;-2.230;2023-07-30T11:48:47;0.10;;;0.00;;
37221;SDS011;23119;51.842;-2.230;2023-07-30T11:51:24;0.50;;;0.00;;
37221;SDS011;23119;51.842;-2.230;2023-07-30T11:53:52;1.38;;;0.00;;
37221;SDS011;23119;51.842;-2.230;2023-07-30T11:56:30;1.23;;;0.00;;
37221;SDS011;23119;51.842;-2.230;2023-07-30T11:58:58;0.20;;;0.00;;
37221;SDS011;23119;51.842;-2.230;2023-07-30T12:01:26;0.75;;;0.45;;
37221;SDS011;23119;51.842;-2.230;2023-07-30T12:03:56;0.35;;;0.00;;
37221;SDS011;23119;51.842;-2.230;2023-07-30T12:06:25;0.25;;;0.00;;
37221;SDS011;23119;51.842;-2.230;2023-07-30T12:09:16;0.00;;;0.00;;
37221;SDS011;23119;51.842;-2.230;2023-07-30T12:11:45;0.20;;;0.00;;
37221;SDS011;23119;51.842;-2.230;2023-07-30T12:14:19;1.50;;;0.10;;
37221;SDS011;23119;51.842;-2.230;2023-07-30T12:16:50;0.65;;;0.00;;
37221;SDS011;23119;51.842;-2.230;2023-07-30T12:19:19;0.30;;;0.00;;
37221;SDS011;23119;51.842;-2.230;2023-07-30T12:21:49;0.85;;;0.00;;
37221;SDS011;23119;51.842;-2.230;2023-07-30T12:24:17;0.28;;;0.00;;
37221;SDS011;23119;51.842;-2.230;2023-07-30T12:26:43;0.32;;;0.00;;
37221;SDS011;23119;51.842;-2.230;2023-07-30T12:29:11;0.20;;;0.00;;
37221;SDS011;23119;51.842;-2.230;2023-07-30T12:31:41;0.20;;;0.00;;
37221;SDS011;23119;51.842;-2.230;2023-07-30T12:34:08;1.05;;;0.00;;
37221;SDS011;23119;51.842;-2.230;2023-07-30T12:36:34;0.00;;;0.00;;
37221;SDS011;23119;51.842;-2.230;2023-07-30T12:39:00;0.45;;;0.00;;
37221;SDS011;23119;51.842;-2.230;2023-07-30T12:41:25;0.17;;;0.00;;
37221;SDS011;23119;51.842;-2.230;2023-07-30T12:43:54;0.30;;;0.00;;
37221;SDS011;23119;51.842;-2.230;2023-07-30T12:46:26;0.35;;;0.00;;
37221;SDS011;23119;51.842;-2.230;2023-07-30T12:48:57;0.20;;;0.00;;
37221;SDS011;23119;51.842;-2.230;2023-07-30T12:51:29;0.10;;;0.00;;
37221;SDS011;23119;51.842;-2.230;2023-07-30T12:54:04;0.30;;;0.10;;
37221;SDS011;23119;51.842;-2.230;2023-07-30T12:56:33;0.50;;;0.10;;
37221;SDS011;23119;51.842;-2.230;2023-07-30T12:58:58;0.55;;;0.10;;
37221;SDS011;23119;51.842;-2.230;2023-07-30T13:01:24;2.25;;;0.10;;
37221;SDS011;23119;51.842;-2.230;2023-07-30T13:03:58;1.02;;;0.20;;
37221;SDS011;23119;51.842;-2.230;2023-07-30T13:06:28;0.80;;;0.30;;
37221;SDS011;23119;51.842;-2.230;2023-07-30T13:08:56;3.20;;;0.60;;
37221;SDS011;23119;51.842;-2.230;2023-07-30T13:11:24;4.00;;;1.05;;
37221;SDS011;23119;51.842;-2.230;2023-07-30T13:13:49;0.60;;;0.20;;
37221;SDS011;23119;51.842;-2.230;2023-07-30T13:16:15;0.60;;;0.20;;
37221;SDS011;23119;51.842;-2.230;2023-07-30T13:18:44;0.20;;;0.10;;
37221;SDS011;23119;51.842;-2.230;2023-07-30T13:21:12;1.45;;;0.13;;
37221;SDS011;23119;51.842;-2.230;2023-07-30T13:23:40;2.28;;;0.10;;
37221;SDS011;23119;51.842;-2.230;2023-07-30T13:26:06;0.30;;;0.10;;
37221;SDS011;23119;51.842;-2.230;2023-07-30T13:28:34;0.85;;;0.28;;
37221;SDS011;23119;51.842;-2.230;2023-07-30T13:31:02;1.00;;;0.00;;
37221;SDS011;23119;51.842;-2.230;2023-07-30T13:33:30;0.75;;;0.10;;
37221;SDS011;23119;51.842;-2.230;2023-07-30T13:35:58;0.10;;;0.00;;
37221;SDS011;23119;51.842;-2.230;2023-07-30T13:38:26;0.75;;;0.00;;
37221;SDS011;23119;51.842;-2.230;2023-07-30T13:41:00;0.13;;;0.00;;
37221;SDS011;23119;51.842;-2.230;2023-07-30T13:43:26;0.20;;;0.00;;
37221;SDS011;23119;51.842;-2.230;2023-07-30T13:45:54;0.45;;;0.00;;
37221;SDS011;23119;51.842;-2.230;2023-07-30T13:48:23;1.80;;;0.70;;
37221;SDS011;23119;51.842;-2.230;2023-07-30T13:50:51;0.00;;;0.00;;
37221;SDS011;23119;51.842;-2.230;2023-07-30T13:53:17;2.97;;;0.85;;
37221;SDS011;23119;51.842;-2.230;2023-07-30T13:55:45;0.32;;;0.20;;
37221;SDS011;23119;51.842;-2.230;2023-07-30T13:58:11;0.73;;;0.20;;
37221;SDS011;23119;51.842;-2.230;2023-07-30T14:00:39;0.08;;;0.00;;
37221;SDS011;23119;51.842;-2.230;2023-07-30T14:03:06;0.55;;;0.10;;
37221;SDS011;23119;51.842;-2.230;2023-07-30T14:05:38;0.10;;;0.00;;
37221;SDS011;23119;51.842;-2.230;2023-07-30T14:08:04;0.03;;;0.00;;
37221;SDS011;23119;51.842;-2.230;2023-07-30T14:10:32;0.00;;;0.00;;
37221;SDS011;23119;51.842;-2.230;2023-07-30T14:13:00;0.45;;;0.00;;
37221;SDS011;23119;51.842;-2.230;2023-07-30T14:15:26;1.95;;;0.75;;
37221;SDS011;23119;51.842;-2.230;2023-07-30T14:17:52;0.75;;;0.10;;
37221;SDS011;23119;51.842;-2.230;2023-07-30T14:20:28;2.97;;;0.57;;
37221;SDS011;23119;51.842;-2.230;2023-07-30T14:22:54;0.93;;;0.10;;
37221;SDS011;23119;51.842;-2.230;2023-07-30T14:25:22;2.95;;;0.30;;
37221;SDS011;23119;51.842;-2.230;2023-07-30T14:27:48;0.75;;;0.17;;
37221;SDS011;23119;51.842;-2.230;2023-07-30T14:30:25;2.45;;;0.40;;
37221;SDS011;23119;51.842;-2.230;2023-07-30T14:32:53;0.68;;;0.30;;
37221;SDS011;23119;51.842;-2.230;2023-07-30T14:35:22;1.50;;;0.40;;
37221;SDS011;23119;51.842;-2.230;2023-07-30T14:37:50;2.22;;;0.40;;
37221;SDS011;23119;51.842;-2.230;2023-07-30T14:40:16;4.07;;;0.70;;
37221;SDS011;23119;51.842;-2.230;2023-07-30T14:42:47;2.10;;;0.50;;
37221;SDS011;23119;51.842;-2.230;2023-07-30T14:45:15;3.50;;;0.65;;
37221;SDS011;23119;51.842;-2.230;2023-07-30T14:47:43;5.40;;;0.50;;
37221;SDS011;23119;51.842;-2.230;2023-07-30T14:50:10;5.55;;;0.80;;
37221;SDS011;23119;51.842;-2.230;2023-07-30T14:52:35;3.15;;;0.70;;
37221;SDS011;23119;51.842;-2.230;2023-07-30T14:55:01;4.25;;;0.70;;